sensor_id;sensor_type;location;lat;lon;timestamp;temperature;humidity
34201;DHT22;20469;55.638;37.670;2022-09-27T00:01:07;6.50;99.90
34201;DHT22;20469;55.638;37.670;2022-09-27T00:03:35;6.40;99.90
34201;DHT22;20469;55.638;37.670;2022-09-27T00:06:07;6.30;99.90
34201;DHT22;20469;55.638;37.670;2022-09-27T00:08:35;6.50;99.90
34201;DHT22;20469;55.638;37.670;2022-09-27T00:11:06;6.90;99.90
34201;DHT22;20469;55.638;37.670;2022-09-27T00:13:35;7.00;99.90
34201;DHT22;20469;55.638;37.670;2022-09-27T00:16:03;6.80;99.90
34201;DHT22;20469;55.638;37.670;2022-09-27T00:18:33;6.90;99.90
34201;DHT22;20469;55.638;37.670;2022-09-27T00:21:11;6.90;99.90
34201;DHT22;20469;55.638;37.670;2022-09-27T00:23:39;7.00;99.90
34201;DHT22;20469;55.638;37.670;2022-09-27T00:26:09;6.80;99.90
34201;DHT22;20469;55.638;37.670;2022-09-27T00:28:38;6.90;99.90
34201;DHT22;20469;55.638;37.670;2022-09-27T00:31:17;6.90;99.90
34201;DHT22;20469;55.638;37.670;2022-09-27T00:33:50;6.90;99.90
34201;DHT22;20469;55.638;37.670;2022-09-27T00:36:19;6.60;99.90
34201;DHT22;20469;55.638;37.670;2022-09-27T00:38:48;6.40;99.90
34201;DHT22;20469;55.638;37.670;2022-09-27T00:41:21;6.20;99.90
34201;DHT22;20469;55.638;37.670;2022-09-27T00:43:51;6.00;99.90
34201;DHT22;20469;55.638;37.670;2022-09-27T00:46:30;6.00;99.90
34201;DHT22;20469;55.638;37.670;2022-09-27T00:49:24;6.00;99.90
34201;DHT22;20469;55.638;37.670;2022-09-27T00:51:55;6.00;99.90
34201;DHT22;20469;55.638;37.670;2022-09-27T00:54:25;6.10;99.90
34201;DHT22;20469;55.638;37.670;2022-09-27T00:56:54;6.00;99.90
34201;DHT22;20469;55.638;37.670;2022-09-27T00:59:27;6.10;99.90
34201;DHT22;20469;55.638;37.670;2022-09-27T01:01:56;6.00;99.90
34201;DHT22;20469;55.638;37.670;2022-09-27T01:04:26;6.10;99.90
34201;DHT22;20469;55.638;37.670;2022-09-27T01:06:54;6.00;99.90
34201;DHT22;20469;55.638;37.670;2022-09-27T01:09:22;6.00;99.90
34201;DHT22;20469;55.638;37.670;2022-09-27T01:12:06;6.00;99.90
34201;DHT22;20469;55.638;37.670;2022-09-27T01:14:46;6.20;99.90
34201;DHT22;20469;55.638;37.670;2022-09-27T01:17:37;6.20;99.90
34201;DHT22;20469;55.638;37.670;2022-09-27T01:20:25;6.00;99.90
34201;DHT22;20469;55.638;37.670;2022-09-27T01:26:23;6.00;99.90
34201;DHT22;20469;55.638;37.670;2022-09-27T01:29:13;6.00;99.90
34201;DHT22;20469;55.638;37.670;2022-09-27T01:32:00;6.10;99.90
34201;DHT22;20469;55.638;37.670;2022-09-27T01:34:47;6.10;99.90
34201;DHT22;20469;55.638;37.670;2022-09-27T01:40:22;5.80;99.90
34201;DHT22;20469;55.638;37.670;2022-09-27T01:45:48;5.90;99.90
34201;DHT22;20469;55.638;37.670;2022-09-27T01:48:21;5.90;99.90
34201;DHT22;20469;55.638;37.670;2022-09-27T01:53:41;5.90;99.90
34201;DHT22;20469;55.638;37.670;2022-09-27T01:56:28;6.20;99.90
34201;DHT22;20469;55.638;37.670;2022-09-27T02:01:46;6.40;99.90
34201;DHT22;20469;55.638;37.670;2022-09-27T02:04:20;6.40;99.90
34201;DHT22;20469;55.638;37.670;2022-09-27T02:06:53;6.20;99.90
34201;DHT22;20469;55.638;37.670;2022-09-27T02:09:29;6.20;99.90
34201;DHT22;20469;55.638;37.670;2022-09-27T02:12:03;6.20;99.90
34201;DHT22;20469;55.638;37.670;2022-09-27T02:14:39;6.30;99.90
34201;DHT22;20469;55.638;37.670;2022-09-27T02:20:15;5.90;99.90
34201;DHT22;20469;55.638;37.670;2022-09-27T02:25:53;6.10;99.90
34201;DHT22;20469;55.638;37.670;2022-09-27T02:28:34;6.10;99.90
34201;DHT22;20469;55.638;37.670;2022-09-27T02:31:02;6.30;99.90
34201;DHT22;20469;55.638;37.670;2022-09-27T02:33:36;6.10;99.90
34201;DHT22;20469;55.638;37.670;2022-09-27T02:36:06;6.00;99.90
34201;DHT22;20469;55.638;37.670;2022-09-27T02:38:35;6.00;99.90
34201;DHT22;20469;55.638;37.670;2022-09-27T02:41:03;6.00;99.90
34201;DHT22;20469;55.638;37.670;2022-09-27T02:43:32;6.10;99.90
34201;DHT22;20469;55.638;37.670;2022-09-27T02:46:22;6.20;99.90
34201;DHT22;20469;55.638;37.670;2022-09-27T02:55:08;6.10;99.90
34201;DHT22;20469;55.638;37.670;2022-09-27T02:57:49;5.80;99.90
34201;DHT22;20469;55.638;37.670;2022-09-27T03:00:29;5.50;99.90
34201;DHT22;20469;55.638;37.670;2022-09-27T03:03:12;5.50;99.90
34201;DHT22;20469;55.638;37.670;2022-09-27T03:05:46;5.60;99.90
34201;DHT22;20469;55.638;37.670;2022-09-27T03:08:15;5.80;99.90
34201;DHT22;20469;55.638;37.670;2022-09-27T03:10:44;5.70;99.90
34201;DHT22;20469;55.638;37.670;2022-09-27T03:13:11;5.40;99.90
34201;DHT22;20469;55.638;37.670;2022-09-27T03:15:39;5.10;99.90
34201;DHT22;20469;55.638;37.670;2022-09-27T03:18:07;5.10;99.90
34201;DHT22;20469;55.638;37.670;2022-09-27T03:20:35;5.10;99.90
34201;DHT22;20469;55.638;37.670;2022-09-27T03:23:03;5.00;99.90
34201;DHT22;20469;55.638;37.670;2022-09-27T03:25:30;5.00;99.90
34201;DHT22;20469;55.638;37.670;2022-09-27T03:27:58;5.20;99.90
34201;DHT22;20469;55.638;37.670;2022-09-27T03:30:25;5.40;99.90
34201;DHT22;20469;55.638;37.670;2022-09-27T03:32:53;5.40;99.90
34201;DHT22;20469;55.638;37.670;2022-09-27T03:35:20;5.50;99.90
34201;DHT22;20469;55.638;37.670;2022-09-27T03:37:48;5.20;99.90
34201;DHT22;20469;55.638;37.670;2022-09-27T03:40:16;5.10;99.90
34201;DHT22;20469;55.638;37.670;2022-09-27T03:42:44;5.10;99.90
34201;DHT22;20469;55.638;37.670;2022-09-27T03:45:16;5.10;99.90
34201;DHT22;20469;55.638;37.670;2022-09-27T03:47:44;5.30;99.90
34201;DHT22;20469;55.638;37.670;2022-09-27T03:50:12;5.30;99.90
34201;DHT22;20469;55.638;37.670;2022-09-27T03:52:42;5.30;99.90
34201;DHT22;20469;55.638;37.670;2022-09-27T03:55:11;5.50;99.90
34201;DHT22;20469;55.638;37.670;2022-09-27T03:57:43;5.50;99.90
34201;DHT22;20469;55.638;37.670;2022-09-27T04:00:11;5.40;99.90
34201;DHT22;20469;55.638;37.670;2022-09-27T04:02:41;5.60;99.90
34201;DHT22;20469;55.638;37.670;2022-09-27T04:05:09;5.80;99.90
34201;DHT22;20469;55.638;37.670;2022-09-27T04:07:37;5.90;99.90
34201;DHT22;20469;55.638;37.670;2022-09-27T04:10:05;6.00;99.90
34201;DHT22;20469;55.638;37.670;2022-09-27T04:12:33;6.10;99.90
34201;DHT22;20469;55.638;37.670;2022-09-27T04:15:03;6.10;99.90
34201;DHT22;20469;55.638;37.670;2022-09-27T04:17:32;6.10;99.90
34201;DHT22;20469;55.638;37.670;2022-09-27T04:20:00;6.10;99.90
34201;DHT22;20469;55.638;37.670;2022-09-27T04:22:30;6.20;99.90
34201;DHT22;20469;55.638;37.670;2022-09-27T04:24:57;6.30;99.90
34201;DHT22;20469;55.638;37.670;2022-09-27T04:27:25;6.50;99.90
34201;DHT22;20469;55.638;37.670;2022-09-27T04:29:52;6.40;99.90
34201;DHT22;20469;55.638;37.670;2022-09-27T04:32:20;6.20;99.90
34201;DHT22;20469;55.638;37.670;2022-09-27T04:34:47;6.20;99.90
34201;DHT22;20469;55.638;37.670;2022-09-27T04:37:31;6.30;99.90
34201;DHT22;20469;55.638;37.670;2022-09-27T04:39:59;6.30;99.90
34201;DHT22;20469;55.638;37.670;2022-09-27T04:42:26;6.30;99.90
34201;DHT22;20469;55.638;37.670;2022-09-27T04:44:54;6.50;99.90
34201;DHT22;20469;55.638;37.670;2022-09-27T04:47:22;6.70;99.90
34201;DHT22;20469;55.638;37.670;2022-09-27T04:49:50;7.70;99.90
34201;DHT22;20469;55.638;37.670;2022-09-27T04:52:17;8.40;99.90
34201;DHT22;20469;55.638;37.670;2022-09-27T04:54:45;8.70;99.90
34201;DHT22;20469;55.638;37.670;2022-09-27T04:57:13;8.80;99.90
34201;DHT22;20469;55.638;37.670;2022-09-27T04:59:40;10.50;99.90
34201;DHT22;20469;55.638;37.670;2022-09-27T05:02:09;12.30;99.90
34201;DHT22;20469;55.638;37.670;2022-09-27T05:04:36;12.90;99.90
34201;DHT22;20469;55.638;37.670;2022-09-27T05:07:04;13.10;99.90
34201;DHT22;20469;55.638;37.670;2022-09-27T05:09:32;13.80;99.90
34201;DHT22;20469;55.638;37.670;2022-09-27T05:12:00;14.30;99.90
34201;DHT22;20469;55.638;37.670;2022-09-27T05:14:28;14.30;99.90
34201;DHT22;20469;55.638;37.670;2022-09-27T05:16:55;13.70;99.90
34201;DHT22;20469;55.638;37.670;2022-09-27T05:19:27;13.40;99.90
34201;DHT22;20469;55.638;37.670;2022-09-27T05:21:56;14.50;99.90
34201;DHT22;20469;55.638;37.670;2022-09-27T05:24:24;15.00;99.90
34201;DHT22;20469;55.638;37.670;2022-09-27T05:26:54;14.80;99.90
34201;DHT22;20469;55.638;37.670;2022-09-27T05:29:21;14.50;99.90
34201;DHT22;20469;55.638;37.670;2022-09-27T05:31:49;14.80;99.90
34201;DHT22;20469;55.638;37.670;2022-09-27T05:34:17;13.90;99.90
34201;DHT22;20469;55.638;37.670;2022-09-27T05:36:47;14.80;99.90
34201;DHT22;20469;55.638;37.670;2022-09-27T05:39:15;15.40;99.90
34201;DHT22;20469;55.638;37.670;2022-09-27T05:41:44;16.30;99.90
34201;DHT22;20469;55.638;37.670;2022-09-27T05:44:13;16.10;99.90
34201;DHT22;20469;55.638;37.670;2022-09-27T05:46:42;16.30;99.90
34201;DHT22;20469;55.638;37.670;2022-09-27T05:49:10;16.80;99.90
34201;DHT22;20469;55.638;37.670;2022-09-27T05:51:37;16.80;99.90
34201;DHT22;20469;55.638;37.670;2022-09-27T05:54:05;16.70;99.90
34201;DHT22;20469;55.638;37.670;2022-09-27T05:56:35;16.70;99.90
34201;DHT22;20469;55.638;37.670;2022-09-27T05:59:02;16.80;99.90
34201;DHT22;20469;55.638;37.670;2022-09-27T06:01:30;17.10;99.90
34201;DHT22;20469;55.638;37.670;2022-09-27T06:03:58;17.30;99.90
34201;DHT22;20469;55.638;37.670;2022-09-27T06:06:25;17.20;99.90
34201;DHT22;20469;55.638;37.670;2022-09-27T06:08:53;17.20;99.90
34201;DHT22;20469;55.638;37.670;2022-09-27T06:11:21;17.60;99.90
34201;DHT22;20469;55.638;37.670;2022-09-27T06:13:48;17.60;99.90
34201;DHT22;20469;55.638;37.670;2022-09-27T06:16:16;15.90;99.90
34201;DHT22;20469;55.638;37.670;2022-09-27T06:18:44;16.70;99.90
34201;DHT22;20469;55.638;37.670;2022-09-27T06:21:11;17.50;99.90
34201;DHT22;20469;55.638;37.670;2022-09-27T06:23:39;17.40;99.90
34201;DHT22;20469;55.638;37.670;2022-09-27T06:26:08;16.80;99.90
34201;DHT22;20469;55.638;37.670;2022-09-27T06:28:37;16.60;99.90
34201;DHT22;20469;55.638;37.670;2022-09-27T06:31:05;17.70;99.90
34201;DHT22;20469;55.638;37.670;2022-09-27T06:33:35;16.80;99.90
34201;DHT22;20469;55.638;37.670;2022-09-27T06:36:06;14.80;99.90
34201;DHT22;20469;55.638;37.670;2022-09-27T06:38:34;14.60;99.90
34201;DHT22;20469;55.638;37.670;2022-09-27T06:41:03;16.00;99.90
34201;DHT22;20469;55.638;37.670;2022-09-27T06:43:32;17.50;99.90
34201;DHT22;20469;55.638;37.670;2022-09-27T06:46:01;17.50;99.90
34201;DHT22;20469;55.638;37.670;2022-09-27T06:48:33;15.20;99.90
34201;DHT22;20469;55.638;37.670;2022-09-27T06:51:04;13.60;99.90
34201;DHT22;20469;55.638;37.670;2022-09-27T06:53:32;12.50;99.90
34201;DHT22;20469;55.638;37.670;2022-09-27T06:56:00;12.20;99.90
34201;DHT22;20469;55.638;37.670;2022-09-27T06:58:28;12.60;99.90
34201;DHT22;20469;55.638;37.670;2022-09-27T07:01:11;13.80;99.90
34201;DHT22;20469;55.638;37.670;2022-09-27T07:03:39;16.80;99.90
34201;DHT22;20469;55.638;37.670;2022-09-27T07:06:18;18.00;99.90
34201;DHT22;20469;55.638;37.670;2022-09-27T07:08:50;16.70;99.90
34201;DHT22;20469;55.638;37.670;2022-09-27T07:11:19;14.90;99.90
34201;DHT22;20469;55.638;37.670;2022-09-27T07:13:53;12.90;99.90
34201;DHT22;20469;55.638;37.670;2022-09-27T07:16:24;11.70;99.90
34201;DHT22;20469;55.638;37.670;2022-09-27T07:18:52;14.70;99.90
34201;DHT22;20469;55.638;37.670;2022-09-27T07:21:20;18.10;99.90
34201;DHT22;20469;55.638;37.670;2022-09-27T07:23:47;19.30;99.90
34201;DHT22;20469;55.638;37.670;2022-09-27T07:26:15;17.70;99.90
34201;DHT22;20469;55.638;37.670;2022-09-27T07:28:42;19.50;99.90
34201;DHT22;20469;55.638;37.670;2022-09-27T07:31:12;19.00;99.90
34201;DHT22;20469;55.638;37.670;2022-09-27T07:33:39;17.80;99.90
34201;DHT22;20469;55.638;37.670;2022-09-27T07:36:11;18.20;99.90
34201;DHT22;20469;55.638;37.670;2022-09-27T07:38:39;17.50;99.90
34201;DHT22;20469;55.638;37.670;2022-09-27T07:41:10;18.90;99.90
34201;DHT22;20469;55.638;37.670;2022-09-27T07:43:42;18.40;99.90
34201;DHT22;20469;55.638;37.670;2022-09-27T07:46:12;18.40;99.90
34201;DHT22;20469;55.638;37.670;2022-09-27T07:48:41;18.70;99.90
34201;DHT22;20469;55.638;37.670;2022-09-27T07:51:09;19.10;99.90
34201;DHT22;20469;55.638;37.670;2022-09-27T07:53:38;18.20;99.90
34201;DHT22;20469;55.638;37.670;2022-09-27T07:56:06;18.00;99.90
34201;DHT22;20469;55.638;37.670;2022-09-27T07:58:34;20.00;99.90
34201;DHT22;20469;55.638;37.670;2022-09-27T08:01:01;19.50;99.90
34201;DHT22;20469;55.638;37.670;2022-09-27T08:03:29;19.80;99.90
34201;DHT22;20469;55.638;37.670;2022-09-27T08:06:01;19.10;99.90
34201;DHT22;20469;55.638;37.670;2022-09-27T08:08:30;18.90;99.90
34201;DHT22;20469;55.638;37.670;2022-09-27T08:10:57;20.20;99.90
34201;DHT22;20469;55.638;37.670;2022-09-27T08:13:25;20.40;99.90
34201;DHT22;20469;55.638;37.670;2022-09-27T08:15:53;20.20;99.90
34201;DHT22;20469;55.638;37.670;2022-09-27T08:18:20;21.40;97.20
34201;DHT22;20469;55.638;37.670;2022-09-27T08:20:48;17.60;99.70
34201;DHT22;20469;55.638;37.670;2022-09-27T08:23:15;14.50;99.90
34201;DHT22;20469;55.638;37.670;2022-09-27T08:25:43;12.90;99.90
34201;DHT22;20469;55.638;37.670;2022-09-27T08:28:10;12.90;99.90
34201;DHT22;20469;55.638;37.670;2022-09-27T08:30:38;13.20;99.90
34201;DHT22;20469;55.638;37.670;2022-09-27T08:33:06;12.70;99.90
34201;DHT22;20469;55.638;37.670;2022-09-27T08:35:33;13.30;99.90
34201;DHT22;20469;55.638;37.670;2022-09-27T08:38:02;13.10;99.90
34201;DHT22;20469;55.638;37.670;2022-09-27T08:43:48;12.60;99.90
34201;DHT22;20469;55.638;37.670;2022-09-27T08:49:21;19.10;99.90
34201;DHT22;20469;55.638;37.670;2022-09-27T08:51:52;15.90;99.90
34201;DHT22;20469;55.638;37.670;2022-09-27T08:54:27;14.00;99.90
34201;DHT22;20469;55.638;37.670;2022-09-27T08:57:08;13.60;99.90
34201;DHT22;20469;55.638;37.670;2022-09-27T08:59:42;12.90;99.90
34201;DHT22;20469;55.638;37.670;2022-09-27T09:02:21;12.50;99.90
34201;DHT22;20469;55.638;37.670;2022-09-27T09:04:54;12.40;99.90
34201;DHT22;20469;55.638;37.670;2022-09-27T09:07:47;12.50;99.90
34201;DHT22;20469;55.638;37.670;2022-09-27T09:13:44;15.00;99.90
34201;DHT22;20469;55.638;37.670;2022-09-27T09:16:42;18.00;99.90
34201;DHT22;20469;55.638;37.670;2022-09-27T09:30:50;15.60;99.90
34201;DHT22;20469;55.638;37.670;2022-09-27T09:33:26;16.90;99.90
34201;DHT22;20469;55.638;37.670;2022-09-27T09:36:00;19.00;99.90
34201;DHT22;20469;55.638;37.670;2022-09-27T09:38:39;17.10;99.90
34201;DHT22;20469;55.638;37.670;2022-09-27T09:41:26;14.20;99.90
34201;DHT22;20469;55.638;37.670;2022-09-27T09:43:59;13.30;99.90
34201;DHT22;20469;55.638;37.670;2022-09-27T09:46:38;13.40;99.90
34201;DHT22;20469;55.638;37.670;2022-09-27T09:49:21;13.90;99.90
34201;DHT22;20469;55.638;37.670;2022-09-27T09:51:54;13.90;99.90
34201;DHT22;20469;55.638;37.670;2022-09-27T09:54:30;13.40;99.90
34201;DHT22;20469;55.638;37.670;2022-09-27T09:57:05;13.00;99.90
34201;DHT22;20469;55.638;37.670;2022-09-27T09:59:39;13.30;99.90
34201;DHT22;20469;55.638;37.670;2022-09-27T10:02:24;13.70;99.90
34201;DHT22;20469;55.638;37.670;2022-09-27T10:04:57;12.90;99.90
34201;DHT22;20469;55.638;37.670;2022-09-27T10:07:36;12.70;99.90
34201;DHT22;20469;55.638;37.670;2022-09-27T10:10:06;12.60;99.90
34201;DHT22;20469;55.638;37.670;2022-09-27T10:12:35;12.40;99.90
34201;DHT22;20469;55.638;37.670;2022-09-27T10:15:11;13.20;99.90
34201;DHT22;20469;55.638;37.670;2022-09-27T10:17:47;18.90;99.90
34201;DHT22;20469;55.638;37.670;2022-09-27T10:20:35;21.80;99.90
34201;DHT22;20469;55.638;37.670;2022-09-27T10:23:14;19.60;96.70
34201;DHT22;20469;55.638;37.670;2022-09-27T10:25:58;14.50;99.90
34201;DHT22;20469;55.638;37.670;2022-09-27T10:28:33;14.70;99.90
34201;DHT22;20469;55.638;37.670;2022-09-27T10:31:06;15.40;99.90
34201;DHT22;20469;55.638;37.670;2022-09-27T10:33:49;17.30;99.90
34201;DHT22;20469;55.638;37.670;2022-09-27T10:36:29;18.10;99.90
34201;DHT22;20469;55.638;37.670;2022-09-27T10:39:02;19.80;99.90
34201;DHT22;20469;55.638;37.670;2022-09-27T10:41:33;22.10;93.20
34201;DHT22;20469;55.638;37.670;2022-09-27T10:44:18;22.70;90.20
34201;DHT22;20469;55.638;37.670;2022-09-27T10:46:55;22.00;77.30
34201;DHT22;20469;55.638;37.670;2022-09-27T10:49:31;16.70;95.80
34201;DHT22;20469;55.638;37.670;2022-09-27T10:52:12;19.50;95.20
34201;DHT22;20469;55.638;37.670;2022-09-27T10:54:53;20.30;91.10
34201;DHT22;20469;55.638;37.670;2022-09-27T10:57:26;19.10;91.50
34201;DHT22;20469;55.638;37.670;2022-09-27T11:00:01;17.70;94.60
34201;DHT22;20469;55.638;37.670;2022-09-27T11:02:34;15.30;99.90
34201;DHT22;20469;55.638;37.670;2022-09-27T11:05:10;16.60;99.90
34201;DHT22;20469;55.638;37.670;2022-09-27T11:07:50;18.60;99.90
34201;DHT22;20469;55.638;37.670;2022-09-27T11:10:25;17.30;99.90
34201;DHT22;20469;55.638;37.670;2022-09-27T11:13:13;18.40;97.60
34201;DHT22;20469;55.638;37.670;2022-09-27T11:15:59;20.20;95.40
34201;DHT22;20469;55.638;37.670;2022-09-27T11:30:15;17.90;93.20
34201;DHT22;20469;55.638;37.670;2022-09-27T11:36:04;17.20;94.50
34201;DHT22;20469;55.638;37.670;2022-09-27T11:38:50;16.90;97.10
34201;DHT22;20469;55.638;37.670;2022-09-27T11:44:35;15.80;99.90
34201;DHT22;20469;55.638;37.670;2022-09-27T11:47:26;17.20;98.50
34201;DHT22;20469;55.638;37.670;2022-09-27T11:53:07;21.20;83.50
34201;DHT22;20469;55.638;37.670;2022-09-27T11:59:15;17.40;92.50
34201;DHT22;20469;55.638;37.670;2022-09-27T12:01:49;19.30;80.30
34201;DHT22;20469;55.638;37.670;2022-09-27T12:07:31;14.50;99.90
34201;DHT22;20469;55.638;37.670;2022-09-27T12:10:07;13.80;99.90
34201;DHT22;20469;55.638;37.670;2022-09-27T12:12:39;14.00;99.90
34201;DHT22;20469;55.638;37.670;2022-09-27T12:15:18;14.10;99.90
34201;DHT22;20469;55.638;37.670;2022-09-27T12:17:50;14.50;99.90
34201;DHT22;20469;55.638;37.670;2022-09-27T12:20:24;17.60;99.90
34201;DHT22;20469;55.638;37.670;2022-09-27T12:22:56;16.00;99.90
34201;DHT22;20469;55.638;37.670;2022-09-27T12:25:31;14.90;99.90
34201;DHT22;20469;55.638;37.670;2022-09-27T12:30:56;14.00;99.90
34201;DHT22;20469;55.638;37.670;2022-09-27T12:36:36;13.80;99.90
34201;DHT22;20469;55.638;37.670;2022-09-27T12:39:27;13.90;99.90
34201;DHT22;20469;55.638;37.670;2022-09-27T12:42:03;14.10;99.90
34201;DHT22;20469;55.638;37.670;2022-09-27T12:44:38;13.90;99.90
34201;DHT22;20469;55.638;37.670;2022-09-27T12:50:06;13.80;99.90
34201;DHT22;20469;55.638;37.670;2022-09-27T12:52:42;13.60;99.90
34201;DHT22;20469;55.638;37.670;2022-09-27T12:55:46;13.60;99.90
34201;DHT22;20469;55.638;37.670;2022-09-27T12:58:32;13.50;99.90
34201;DHT22;20469;55.638;37.670;2022-09-27T13:01:24;13.60;99.90
34201;DHT22;20469;55.638;37.670;2022-09-27T13:07:05;13.20;99.90
34201;DHT22;20469;55.638;37.670;2022-09-27T13:09:49;13.30;99.90
34201;DHT22;20469;55.638;37.670;2022-09-27T13:12:26;13.30;99.90
34201;DHT22;20469;55.638;37.670;2022-09-27T13:15:11;13.10;99.90
34201;DHT22;20469;55.638;37.670;2022-09-27T13:17:51;13.00;99.90
34201;DHT22;20469;55.638;37.670;2022-09-27T13:20:40;13.10;99.90
34201;DHT22;20469;55.638;37.670;2022-09-27T13:23:48;13.00;99.90
34201;DHT22;20469;55.638;37.670;2022-09-27T13:26:23;13.00;99.90
34201;DHT22;20469;55.638;37.670;2022-09-27T13:29:27;12.90;99.90
34201;DHT22;20469;55.638;37.670;2022-09-27T13:32:02;12.60;99.90
34201;DHT22;20469;55.638;37.670;2022-09-27T13:34:48;12.80;99.90
34201;DHT22;20469;55.638;37.670;2022-09-27T13:37:45;12.80;99.90
34201;DHT22;20469;55.638;37.670;2022-09-27T13:40:25;12.80;99.90
34201;DHT22;20469;55.638;37.670;2022-09-27T13:43:19;12.60;99.90
34201;DHT22;20469;55.638;37.670;2022-09-27T13:46:01;12.60;99.90
34201;DHT22;20469;55.638;37.670;2022-09-27T13:48:45;12.60;99.90
34201;DHT22;20469;55.638;37.670;2022-09-27T13:51:42;12.60;99.90
34201;DHT22;20469;55.638;37.670;2022-09-27T13:54:38;12.60;99.90
34201;DHT22;20469;55.638;37.670;2022-09-27T14:00:26;12.60;99.90
34201;DHT22;20469;55.638;37.670;2022-09-27T14:03:22;12.50;99.90
34201;DHT22;20469;55.638;37.670;2022-09-27T14:06:07;12.40;99.90
34201;DHT22;20469;55.638;37.670;2022-09-27T14:08:56;12.40;99.90
34201;DHT22;20469;55.638;37.670;2022-09-27T14:11:33;12.30;99.90
34201;DHT22;20469;55.638;37.670;2022-09-27T14:14:14;12.30;99.90
34201;DHT22;20469;55.638;37.670;2022-09-27T14:16:46;12.30;99.90
34201;DHT22;20469;55.638;37.670;2022-09-27T14:19:20;12.40;99.90
34201;DHT22;20469;55.638;37.670;2022-09-27T14:21:54;12.30;99.90
34201;DHT22;20469;55.638;37.670;2022-09-27T14:24:28;12.30;99.90
34201;DHT22;20469;55.638;37.670;2022-09-27T14:27:19;12.30;99.90
34201;DHT22;20469;55.638;37.670;2022-09-27T14:29:55;12.20;99.90
34201;DHT22;20469;55.638;37.670;2022-09-27T14:32:33;12.20;99.90
34201;DHT22;20469;55.638;37.670;2022-09-27T14:35:17;12.30;99.90
34201;DHT22;20469;55.638;37.670;2022-09-27T14:38:07;12.10;99.90
34201;DHT22;20469;55.638;37.670;2022-09-27T14:41:03;12.10;99.90
34201;DHT22;20469;55.638;37.670;2022-09-27T14:43:41;12.10;99.90
34201;DHT22;20469;55.638;37.670;2022-09-27T14:46:29;12.00;99.90
34201;DHT22;20469;55.638;37.670;2022-09-27T14:49:19;12.10;99.90
34201;DHT22;20469;55.638;37.670;2022-09-27T14:51:54;12.00;99.90
34201;DHT22;20469;55.638;37.670;2022-09-27T14:54:29;11.90;99.90
34201;DHT22;20469;55.638;37.670;2022-09-27T14:57:00;12.00;99.90
34201;DHT22;20469;55.638;37.670;2022-09-27T14:59:34;11.90;99.90
34201;DHT22;20469;55.638;37.670;2022-09-27T15:02:17;11.80;99.90
34201;DHT22;20469;55.638;37.670;2022-09-27T15:04:48;11.90;99.90
34201;DHT22;20469;55.638;37.670;2022-09-27T15:07:18;11.90;99.90
34201;DHT22;20469;55.638;37.670;2022-09-27T15:09:48;11.70;99.90
34201;DHT22;20469;55.638;37.670;2022-09-27T15:12:22;11.70;99.90
34201;DHT22;20469;55.638;37.670;2022-09-27T15:14:54;11.70;99.90
34201;DHT22;20469;55.638;37.670;2022-09-27T15:17:26;11.60;99.90
34201;DHT22;20469;55.638;37.670;2022-09-27T15:19:59;11.60;99.90
34201;DHT22;20469;55.638;37.670;2022-09-27T15:22:44;11.70;99.90
34201;DHT22;20469;55.638;37.670;2022-09-27T15:25:21;11.60;99.90
34201;DHT22;20469;55.638;37.670;2022-09-27T15:27:53;11.60;99.90
34201;DHT22;20469;55.638;37.670;2022-09-27T15:30:28;11.50;99.90
34201;DHT22;20469;55.638;37.670;2022-09-27T15:32:59;11.50;99.90
34201;DHT22;20469;55.638;37.670;2022-09-27T15:35:31;11.50;99.90
34201;DHT22;20469;55.638;37.670;2022-09-27T15:38:21;11.50;99.90
34201;DHT22;20469;55.638;37.670;2022-09-27T15:41:00;11.50;99.90
34201;DHT22;20469;55.638;37.670;2022-09-27T15:43:35;11.40;99.90
34201;DHT22;20469;55.638;37.670;2022-09-27T15:51:53;11.40;99.90
34201;DHT22;20469;55.638;37.670;2022-09-27T15:54:26;11.30;99.90
34201;DHT22;20469;55.638;37.670;2022-09-27T15:57:00;11.40;99.90
34201;DHT22;20469;55.638;37.670;2022-09-27T15:59:34;11.40;99.90
34201;DHT22;20469;55.638;37.670;2022-09-27T16:02:11;11.30;99.90
34201;DHT22;20469;55.638;37.670;2022-09-27T16:04:42;11.40;99.90
34201;DHT22;20469;55.638;37.670;2022-09-27T16:07:13;11.40;99.90
34201;DHT22;20469;55.638;37.670;2022-09-27T16:09:42;11.50;99.90
34201;DHT22;20469;55.638;37.670;2022-09-27T16:12:11;11.40;99.90
34201;DHT22;20469;55.638;37.670;2022-09-27T16:14:40;11.30;99.90
34201;DHT22;20469;55.638;37.670;2022-09-27T16:17:08;11.30;99.90
34201;DHT22;20469;55.638;37.670;2022-09-27T16:19:37;11.30;99.90
34201;DHT22;20469;55.638;37.670;2022-09-27T16:22:05;11.20;99.90
34201;DHT22;20469;55.638;37.670;2022-09-27T16:24:34;11.20;99.90
34201;DHT22;20469;55.638;37.670;2022-09-27T16:27:04;11.20;99.90
34201;DHT22;20469;55.638;37.670;2022-09-27T16:29:35;11.30;99.90
34201;DHT22;20469;55.638;37.670;2022-09-27T16:32:13;11.20;99.90
34201;DHT22;20469;55.638;37.670;2022-09-27T16:34:43;11.20;99.90
34201;DHT22;20469;55.638;37.670;2022-09-27T16:37:13;11.00;99.90
34201;DHT22;20469;55.638;37.670;2022-09-27T16:39:42;11.10;99.90
34201;DHT22;20469;55.638;37.670;2022-09-27T16:42:12;11.00;99.90
34201;DHT22;20469;55.638;37.670;2022-09-27T16:44:44;11.00;99.90
34201;DHT22;20469;55.638;37.670;2022-09-27T16:47:16;11.00;99.90
34201;DHT22;20469;55.638;37.670;2022-09-27T16:49:48;11.00;99.90
34201;DHT22;20469;55.638;37.670;2022-09-27T16:52:34;11.00;99.90
34201;DHT22;20469;55.638;37.670;2022-09-27T16:55:05;11.00;99.90
34201;DHT22;20469;55.638;37.670;2022-09-27T16:57:35;11.00;99.90
34201;DHT22;20469;55.638;37.670;2022-09-27T17:00:07;10.90;99.90
34201;DHT22;20469;55.638;37.670;2022-09-27T17:02:39;10.80;99.90
34201;DHT22;20469;55.638;37.670;2022-09-27T17:05:14;10.80;99.90
34201;DHT22;20469;55.638;37.670;2022-09-27T17:07:50;10.80;99.90
34201;DHT22;20469;55.638;37.670;2022-09-27T17:10:22;10.80;99.90
34201;DHT22;20469;55.638;37.670;2022-09-27T17:12:53;10.80;99.90
34201;DHT22;20469;55.638;37.670;2022-09-27T17:15:26;10.80;99.90
34201;DHT22;20469;55.638;37.670;2022-09-27T17:17:58;10.70;99.90
34201;DHT22;20469;55.638;37.670;2022-09-27T17:20:28;10.70;99.90
34201;DHT22;20469;55.638;37.670;2022-09-27T17:23:00;10.70;99.90
34201;DHT22;20469;55.638;37.670;2022-09-27T17:25:30;10.60;99.90
34201;DHT22;20469;55.638;37.670;2022-09-27T17:28:01;10.60;99.90
34201;DHT22;20469;55.638;37.670;2022-09-27T17:30:35;10.60;99.90
34201;DHT22;20469;55.638;37.670;2022-09-27T17:33:10;10.60;99.90
34201;DHT22;20469;55.638;37.670;2022-09-27T17:35:40;10.60;99.90
34201;DHT22;20469;55.638;37.670;2022-09-27T17:38:13;10.50;99.90